Time;durP1;ratioP1;P1;durP2;ratioP2;P2;SDS_P1;SDS_P2;PMS_P1;PMS_P2;Temp;Humidity;BMP_temperature;BMP_pressure;BME280_temperature;BME280_humidity;BME280_pressure;Samples;Min_cycle;Max_cycle;Signal;HPM_P1;HPM_P2
2021/01/03 06:02:10;;;;;;;3.60;1.75;;;;;;;;;;5058673;28;20382;-57
2021/01/03 06:04:37;;;;;;;6.30;2.10;;;;;;;;;;5052469;28;20025;-58
2021/01/03 06:07:23;;;;;;;4.60;1.90;;;;;;;;;;5051525;28;20024;-57
2021/01/03 06:09:49;;;;;;;9.88;2.75;;;;;;;;;;5049753;28;20033;-57
2021/01/03 06:12:17;;;;;;;7.65;2.00;;;;;;;;;;5049938;28;20025;-56
2021/01/03 06:14:45;;;;;;;8.70;2.50;;;;;;;;;;5052291;28;20479;-57
2021/01/03 06:17:14;;;;;;;6.25;2.63;;;;;;;;;;5052463;28;20009;-56
2021/01/03 06:19:50;;;;;;;8.02;2.28;;;;;;;;;;5052264;28;20040;-57
2021/01/03 06:22:30;;;;;;;3.67;1.30;;;;;;;;;;5052003;28;20025;-56
2021/01/03 06:24:57;;;;;;;6.97;1.67;;;;;;;;;;5050476;28;20080;-55
2021/01/03 06:27:31;;;;;;;9.32;2.00;;;;;;;;;;5049473;28;20035;-54
2021/01/03 06:30:00;;;;;;;9.02;1.80;;;;;;;;;;5051575;28;20045;-56
2021/01/03 06:32:41;;;;;;;5.22;1.40;;;;;;;;;;5061339;28;20028;-56
2021/01/03 06:35:26;;;;;;;6.60;1.60;;;;;;;;;;5055142;28;20114;-58
2021/01/03 06:37:57;;;;;;;6.97;2.47;;;;;;;;;;5052143;28;20025;-55
2021/01/03 06:40:24;;;;;;;7.45;2.28;;;;;;;;;;5051741;28;20036;-53
2021/01/03 06:43:09;;;;;;;6.30;1.05;;;;;;;;;;5049425;28;20035;-59
2021/01/03 06:45:44;;;;;;;5.43;1.37;;;;;;;;;;5047831;28;20733;-57
2021/01/03 06:48:24;;;;;;;5.82;1.55;;;;;;;;;;5062885;28;20037;-53
2021/01/03 06:51:16;;;;;;;2.40;0.70;;;;;;;;;;5050984;28;20499;-57
2021/01/03 06:54:00;;;;;;;8.50;0.80;;;;;;;;;;5053378;28;20112;-56
2021/01/03 06:56:26;;;;;;;7.38;1.48;;;;;;;;;;5051584;28;20395;-54
2021/01/03 06:58:52;;;;;;;5.10;1.30;;;;;;;;;;5051538;28;20025;-55
2021/01/03 07:01:21;;;;;;;6.22;1.35;;;;;;;;;;5052650;28;20045;-56
2021/01/03 07:03:50;;;;;;;6.07;1.60;;;;;;;;;;5052881;28;20421;-53
2021/01/03 07:06:16;;;;;;;4.18;1.63;;;;;;;;;;5052561;28;20540;-57
2021/01/03 07:08:44;;;;;;;2.38;1.25;;;;;;;;;;5053183;28;20553;-57
2021/01/03 07:11:29;;;;;;;4.05;1.40;;;;;;;;;;5052499;28;20033;-56
2021/01/03 07:13:55;;;;;;;4.10;1.15;;;;;;;;;;5052547;28;20397;-56
2021/01/03 07:16:39;;;;;;;3.97;1.65;;;;;;;;;;5052687;28;20055;-54
2021/01/03 07:19:11;;;;;;;3.40;1.48;;;;;;;;;;5052280;28;20102;-56
2021/01/03 07:21:40;;;;;;;3.67;1.80;;;;;;;;;;5035902;28;20107;-56
2021/01/03 07:24:25;;;;;;;4.78;1.90;;;;;;;;;;5053210;28;20044;-53
2021/01/03 07:27:10;;;;;;;6.30;2.17;;;;;;;;;;5051190;28;20024;-56
2021/01/03 07:29:48;;;;;;;3.50;1.38;;;;;;;;;;5051318;28;20056;-57
2021/01/03 07:32:16;;;;;;;6.95;2.03;;;;;;;;;;5050726;28;20039;-56
2021/01/03 07:34:42;;;;;;;3.80;1.33;;;;;;;;;;5052001;28;20506;-55
2021/01/03 07:37:11;;;;;;;6.43;1.25;;;;;;;;;;5052193;28;20017;-56
2021/01/03 07:39:55;;;;;;;5.32;2.28;;;;;;;;;;5036349;28;20090;-54
2021/01/03 07:42:23;;;;;;;8.15;1.48;;;;;;;;;;5050029;28;20060;-53
2021/01/03 07:44:50;;;;;;;8.20;1.67;;;;;;;;;;5055067;28;20555;-55
2021/01/03 07:47:35;;;;;;;8.13;1.20;;;;;;;;;;5052942;28;20027;-56
2021/01/03 07:50:20;;;;;;;4.32;1.08;;;;;;;;;;5053368;28;20037;-55
2021/01/03 07:52:46;;;;;;;7.90;2.03;;;;;;;;;;5056648;28;20056;-56
2021/01/03 07:55:14;;;;;;;7.82;1.10;;;;;;;;;;5060878;28;20028;-55
2021/01/03 07:57:40;;;;;;;5.60;1.23;;;;;;;;;;5057682;28;20029;-54
2021/01/03 08:00:07;;;;;;;3.80;1.35;;;;;;;;;;5061533;28;20120;-52
2021/01/03 08:02:35;;;;;;;4.65;1.50;;;;;;;;;;5050878;28;20524;-64
2021/01/03 08:05:02;;;;;;;4.00;1.58;;;;;;;;;;5050652;28;20439;-67
2021/01/03 08:07:29;;;;;;;4.50;1.60;;;;;;;;;;5051049;28;20033;-61
2021/01/03 08:09:55;;;;;;;3.58;1.30;;;;;;;;;;5051718;28;20033;-60
2021/01/03 08:12:36;;;;;;;4.22;1.50;;;;;;;;;;5050908;28;20025;-60
2021/01/03 08:15:07;;;;;;;3.65;1.45;;;;;;;;;;5050495;28;20029;-62
2021/01/03 08:17:39;;;;;;;4.32;1.35;;;;;;;;;;5050725;28;20092;-60
2021/01/03 08:20:07;;;;;;;10.20;2.10;;;;;;;;;;5048300;28;20025;-61
2021/01/03 08:22:34;;;;;;;2.13;1.10;;;;;;;;;;5050542;28;20025;-62
2021/01/03 08:25:02;;;;;;;3.92;0.77;;;;;;;;;;5051443;28;20032;-52
2021/01/03 08:27:39;;;;;;;3.08;0.60;;;;;;;;;;5050565;28;20045;-55
2021/01/03 08:30:08;;;;;;;1.27;0.70;;;;;;;;;;5049757;28;20045;-54
2021/01/03 08:32:37;;;;;;;1.95;0.80;;;;;;;;;;5050441;28;20064;-52
2021/01/03 08:35:06;;;;;;;2.35;1.15;;;;;;;;;;5047841;28;20517;-53
2021/01/03 08:37:38;;;;;;;2.28;0.63;;;;;;;;;;5050343;28;20074;-55
2021/01/03 08:40:12;;;;;;;2.30;0.73;;;;;;;;;;5048469;28;20036;-53
2021/01/03 08:42:41;;;;;;;3.88;1.15;;;;;;;;;;5050869;28;20024;-54
2021/01/03 08:45:08;;;;;;;2.38;0.70;;;;;;;;;;5051367;28;20039;-54
2021/01/03 08:47:41;;;;;;;3.30;0.77;;;;;;;;;;5050466;28;20064;-52
2021/01/03 08:50:09;;;;;;;5.07;1.20;;;;;;;;;;5048018;28;20033;-54
2021/01/03 08:52:36;;;;;;;3.50;1.45;;;;;;;;;;5050319;28;20025;-56
2021/01/03 08:55:12;;;;;;;7.20;1.20;;;;;;;;;;5050214;28;20043;-56
2021/01/03 08:57:39;;;;;;;5.05;1.00;;;;;;;;;;5049148;28;20036;-54
2021/01/03 09:00:06;;;;;;;4.75;1.08;;;;;;;;;;5043436;28;20107;-55
2021/01/03 09:02:32;;;;;;;4.30;1.17;;;;;;;;;;5049220;28;20032;-56
2021/01/03 09:04:59;;;;;;;4.32;1.50;;;;;;;;;;5050277;28;20289;-56
2021/01/03 09:07:27;;;;;;;4.93;2.40;;;;;;;;;;5047223;28;20482;-54
2021/01/03 09:09:54;;;;;;;7.50;2.17;;;;;;;;;;5050099;28;20021;-53
2021/01/03 09:12:34;;;;;;;5.97;1.67;;;;;;;;;;5049777;28;20427;-53
2021/01/03 09:15:01;;;;;;;11.25;2.00;;;;;;;;;;5050397;28;20398;-52
2021/01/03 09:17:34;;;;;;;7.95;2.10;;;;;;;;;;5049781;28;20039;-56
2021/01/03 09:20:09;;;;;;;3.63;2.25;;;;;;;;;;5049150;28;20079;-54
2021/01/03 09:22:35;;;;;;;;;;;;;;;;;;5047613;28;20040;-64
2021/01/03 09:25:06;;;;;;;5.00;1.80;;;;;;;;;;5049334;28;19909;-63
2021/01/03 09:27:33;;;;;;;6.80;1.48;;;;;;;;;;5048554;28;20046;-62
2021/01/03 09:30:07;;;;;;;7.03;2.08;;;;;;;;;;5049493;28;20036;-63
2021/01/03 09:32:33;;;;;;;5.07;1.80;;;;;;;;;;5050061;28;20029;-64
2021/01/03 09:35:11;;;;;;;10.63;2.00;;;;;;;;;;5050068;28;20029;-63
2021/01/03 09:37:39;;;;;;;9.52;2.20;;;;;;;;;;5050074;28;20033;-64
2021/01/03 09:40:11;;;;;;;10.00;2.95;;;;;;;;;;5050081;28;20029;-64
2021/01/03 09:42:42;;;;;;;10.13;3.10;;;;;;;;;;5039649;28;20032;-64
2021/01/03 09:45:11;;;;;;;9.27;3.10;;;;;;;;;;5048303;28;20064;-59
2021/01/03 09:47:39;;;;;;;7.85;3.58;;;;;;;;;;5049537;28;20040;-59
2021/01/03 09:50:17;;;;;;;5.00;2.47;;;;;;;;;;5049923;28;20036;-59
2021/01/03 09:52:52;;;;;;;8.68;2.38;;;;;;;;;;5049929;28;20021;-59
2021/01/03 09:55:27;;;;;;;4.82;2.03;;;;;;;;;;5048786;28;20028;-59
2021/01/03 09:57:53;;;;;;;9.00;2.03;;;;;;;;;;5049960;28;20021;-59
2021/01/03 10:00:26;;;;;;;4.55;2.40;;;;;;;;;;5048964;28;20570;-59
2021/01/03 10:02:53;;;;;;;5.70;2.00;;;;;;;;;;5048400;28;20028;-58
2021/01/03 10:05:31;;;;;;;7.15;2.00;;;;;;;;;;5045738;28;20082;-60
2021/01/03 10:08:02;;;;;;;6.88;2.35;;;;;;;;;;5047964;28;20576;-61
2021/01/03 10:10:44;;;;;;;7.57;2.95;;;;;;;;;;5048271;28;20072;-59
2021/01/03 10:13:11;;;;;;;4.47;2.88;;;;;;;;;;5048108;28;20056;-59
2021/01/03 10:15:37;;;;;;;4.97;2.30;;;;;;;;;;5048467;28;20025;-59
2021/01/03 10:18:06;;;;;;;10.77;4.35;;;;;;;;;;5049646;28;20053;-58
2021/01/03 10:20:34;;;;;;;6.68;2.60;;;;;;;;;;5048058;28;20079;-59
2021/01/03 10:23:00;;;;;;;8.95;4.35;;;;;;;;;;5048329;28;20036;-59
2021/01/03 10:25:27;;;;;;;9.27;2.70;;;;;;;;;;5045070;28;20052;-58
2021/01/03 10:28:10;;;;;;;2.63;1.65;;;;;;;;;;5048248;28;20532;-59
2021/01/03 10:30:36;;;;;;;10.77;1.92;;;;;;;;;;5044431;28;20033;-60
2021/01/03 10:33:03;;;;;;;4.18;1.60;;;;;;;;;;5048265;28;20063;-59
2021/01/03 10:35:29;;;;;;;3.10;1.15;;;;;;;;;;5048127;28;20493;-58
2021/01/03 10:37:55;;;;;;;2.08;1.13;;;;;;;;;;5050692;28;20883;-59
2021/01/03 10:40:21;;;;;;;5.57;0.90;;;;;;;;;;5051760;28;20033;-59
2021/01/03 10:42:49;;;;;;;5.25;1.35;;;;;;;;;;5050377;28;20024;-59
2021/01/03 10:45:15;;;;;;;6.10;1.00;;;;;;;;;;5048494;28;20486;-62
2021/01/03 10:47:41;;;;;;;7.75;1.15;;;;;;;;;;5041194;28;20029;-64
2021/01/03 10:50:08;;;;;;;3.75;1.27;;;;;;;;;;5051298;28;20025;-64
2021/01/03 10:52:34;;;;;;;8.48;1.35;;;;;;;;;;5050372;28;20502;-64
2021/01/03 10:55:00;;;;;;;2.65;1.13;;;;;;;;;;5051835;28;20029;-64
2021/01/03 10:57:26;;;;;;;7.07;1.27;;;;;;;;;;5050683;28;20021;-63
2021/01/03 10:59:53;;;;;;;3.22;0.90;;;;;;;;;;5049314;28;20154;-59
2021/01/03 11:02:20;;;;;;;3.67;1.27;;;;;;;;;;5048273;28;20021;-59
2021/01/03 11:04:46;;;;;;;1.65;0.80;;;;;;;;;;5047958;28;20021;-59
2021/01/03 11:07:12;;;;;;;4.55;1.20;;;;;;;;;;5049039;28;20025;-59
2021/01/03 11:09:38;;;;;;;6.45;0.85;;;;;;;;;;5049803;28;20112;-60
2021/01/03 11:12:06;;;;;;;3.38;1.42;;;;;;;;;;5052261;28;20035;-59
2021/01/03 11:14:32;;;;;;;1.88;0.90;;;;;;;;;;5048964;28;20042;-60
2021/01/03 11:16:58;;;;;;;2.05;0.60;;;;;;;;;;5048434;28;20024;-60
2021/01/03 11:19:25;;;;;;;1.85;0.90;;;;;;;;;;5062001;28;20029;-60
2021/01/03 11:21:58;;;;;;;4.03;1.13;;;;;;;;;;5059568;28;20458;-59
2021/01/03 11:24:24;;;;;;;3.20;1.15;;;;;;;;;;5053081;28;20025;-60
2021/01/03 11:26:50;;;;;;;2.08;0.80;;;;;;;;;;5053527;28;20029;-59
2021/01/03 11:29:19;;;;;;;1.42;0.50;;;;;;;;;;5053400;28;20029;-60
2021/01/03 11:31:46;;;;;;;1.35;0.60;;;;;;;;;;5052982;28;20478;-60
2021/01/03 11:34:14;;;;;;;1.60;0.43;;;;;;;;;;5052333;28;20040;-60
2021/01/03 11:36:45;;;;;;;1.20;0.60;;;;;;;;;;5052600;28;20020;-60
2021/01/03 11:39:11;;;;;;;3.75;0.63;;;;;;;;;;5052891;28;20078;-60
2021/01/03 11:41:37;;;;;;;2.70;0.57;;;;;;;;;;5057354;28;20037;-60
2021/01/03 11:44:04;;;;;;;2.45;0.70;;;;;;;;;;5056423;28;20021;-60
2021/01/03 11:46:30;;;;;;;2.65;0.70;;;;;;;;;;5053346;28;20028;-60
2021/01/03 11:48:56;;;;;;;2.03;0.70;;;;;;;;;;5060265;28;20135;-60
2021/01/03 11:51:22;;;;;;;1.70;0.80;;;;;;;;;;5052735;28;20498;-60
2021/01/03 11:53:48;;;;;;;3.47;0.70;;;;;;;;;;5064203;28;20020;-60
2021/01/03 11:56:21;;;;;;;2.95;0.80;;;;;;;;;;5052826;28;20132;-60
2021/01/03 11:58:47;;;;;;;1.38;0.82;;;;;;;;;;5052039;28;20408;-60
2021/01/03 12:01:17;;;;;;;1.40;0.93;;;;;;;;;;5051708;28;20106;-60
2021/01/03 12:03:44;;;;;;;1.67;0.80;;;;;;;;;;5051701;28;20029;-60
2021/01/03 12:06:10;;;;;;;3.85;0.80;;;;;;;;;;5051885;28;20372;-60
2021/01/03 12:08:36;;;;;;;7.13;1.10;;;;;;;;;;5051949;28;20191;-59
2021/01/03 12:11:02;;;;;;;1.50;1.00;;;;;;;;;;5052208;28;20021;-59
2021/01/03 12:13:29;;;;;;;2.03;0.90;;;;;;;;;;5052187;28;20024;-60
2021/01/03 12:15:55;;;;;;;1.80;0.98;;;;;;;;;;5052291;28;20025;-59
2021/01/03 12:18:21;;;;;;;4.95;1.50;;;;;;;;;;5052098;28;20087;-59
2021/01/03 12:20:47;;;;;;;4.07;1.17;;;;;;;;;;5052271;28;20041;-60
2021/01/03 12:23:13;;;;;;;5.60;1.23;;;;;;;;;;5051534;28;20200;-59
2021/01/03 12:25:39;;;;;;;2.85;1.13;;;;;;;;;;5051785;28;20025;-60
2021/01/03 12:28:05;;;;;;;3.50;1.63;;;;;;;;;;5063698;28;20105;-59
2021/01/03 12:30:31;;;;;;;3.85;1.80;;;;;;;;;;5051935;28;20037;-60
2021/01/03 12:32:57;;;;;;;4.47;2.00;;;;;;;;;;5052930;28;20123;-59
2021/01/03 12:35:23;;;;;;;4.82;2.25;;;;;;;;;;5054178;28;20028;-60
2021/01/03 12:37:49;;;;;;;3.15;2.03;;;;;;;;;;5051124;28;20105;-59
2021/01/03 12:40:16;;;;;;;6.70;2.47;;;;;;;;;;5050289;28;20413;-59
2021/01/03 12:42:42;;;;;;;4.57;1.98;;;;;;;;;;5050663;28;20025;-59
2021/01/03 12:45:09;;;;;;;6.68;2.90;;;;;;;;;;5054553;28;20024;-59
2021/01/03 12:47:36;;;;;;;6.25;1.92;;;;;;;;;;5049981;28;20025;-59
2021/01/03 12:50:02;;;;;;;6.97;4.38;;;;;;;;;;5050984;28;20371;-59
2021/01/03 12:52:28;;;;;;;5.78;2.13;;;;;;;;;;5050394;28;20024;-59
2021/01/03 12:54:54;;;;;;;3.70;1.70;;;;;;;;;;5051069;28;20056;-60
2021/01/03 12:57:20;;;;;;;6.95;2.28;;;;;;;;;;5051074;28;20036;-59
2021/01/03 12:59:46;;;;;;;4.93;2.35;;;;;;;;;;5050633;28;20648;-59
2021/01/03 13:02:13;;;;;;;4.32;2.05;;;;;;;;;;5050201;28;20017;-59
2021/01/03 13:04:40;;;;;;;5.13;2.00;;;;;;;;;;5050513;28;20359;-59
2021/01/03 13:07:06;;;;;;;3.03;1.70;;;;;;;;;;5050037;28;20525;-59
2021/01/03 13:09:32;;;;;;;3.22;1.63;;;;;;;;;;5050549;28;20068;-59
2021/01/03 13:11:58;;;;;;;4.63;1.73;;;;;;;;;;5051186;28;20022;-59
2021/01/03 13:14:25;;;;;;;6.32;2.25;;;;;;;;;;5050632;28;20031;-59
2021/01/03 13:16:51;;;;;;;2.38;1.55;;;;;;;;;;5050845;28;20108;-59
2021/01/03 13:19:17;;;;;;;2.53;1.30;;;;;;;;;;5051048;28;20017;-59
2021/01/03 13:21:48;;;;;;;3.50;1.50;;;;;;;;;;5050596;28;20462;-59
2021/01/03 13:24:14;;;;;;;2.97;1.23;;;;;;;;;;5051309;28;20029;-59
2021/01/03 13:26:40;;;;;;;2.40;1.30;;;;;;;;;;5051408;28;20029;-59
2021/01/03 13:29:07;;;;;;;3.80;1.55;;;;;;;;;;5050650;28;20033;-59
2021/01/03 13:31:33;;;;;;;3.60;1.42;;;;;;;;;;5050917;28;20449;-59
2021/01/03 13:33:59;;;;;;;3.17;1.67;;;;;;;;;;5051076;28;20474;-59
2021/01/03 13:36:28;;;;;;;4.15;1.50;;;;;;;;;;5050515;28;20021;-59
2021/01/03 13:38:55;;;;;;;3.38;1.30;;;;;;;;;;5051392;28;20025;-59
2021/01/03 13:41:21;;;;;;;2.83;1.67;;;;;;;;;;5050711;28;20035;-59
2021/01/03 13:43:48;;;;;;;2.97;1.23;;;;;;;;;;5050597;28;20478;-59
2021/01/03 13:46:15;;;;;;;3.03;1.10;;;;;;;;;;5050644;28;20029;-59
2021/01/03 13:48:41;;;;;;;2.20;1.20;;;;;;;;;;5050567;28;20017;-59
2021/01/03 13:51:09;;;;;;;2.78;1.40;;;;;;;;;;5050974;28;20037;-59
2021/01/03 13:53:35;;;;;;;5.88;1.35;;;;;;;;;;5050772;28;20032;-59
2021/01/03 13:56:01;;;;;;;2.85;1.20;;;;;;;;;;5050552;28;20173;-59
2021/01/03 13:58:27;;;;;;;2.20;1.48;;;;;;;;;;5049349;28;20036;-59
2021/01/03 14:00:53;;;;;;;3.30;1.27;;;;;;;;;;5050314;28;20045;-59
2021/01/03 14:03:19;;;;;;;2.97;1.40;;;;;;;;;;5050588;28;20509;-59
2021/01/03 14:05:46;;;;;;;3.72;1.15;;;;;;;;;;5050182;28;20021;-59
2021/01/03 14:08:12;;;;;;;3.45;1.50;;;;;;;;;;5050408;28;20027;-59
2021/01/03 14:10:41;;;;;;;2.20;1.40;;;;;;;;;;5050418;28;20025;-59
2021/01/03 14:13:10;;;;;;;2.42;1.48;;;;;;;;;;5053716;28;20035;-59
2021/01/03 14:15:36;;;;;;;4.53;2.00;;;;;;;;;;5054105;28;20058;-59
2021/01/03 14:18:02;;;;;;;5.05;1.90;;;;;;;;;;5057077;28;20032;-59
2021/01/03 14:20:28;;;;;;;6.63;2.13;;;;;;;;;;5052893;28;20066;-60
2021/01/03 14:22:54;;;;;;;6.75;3.35;;;;;;;;;;5051257;28;20025;-59
2021/01/03 14:25:21;;;;;;;5.07;2.90;;;;;;;;;;5053830;28;20033;-59
2021/01/03 14:27:47;;;;;;;2.63;1.98;;;;;;;;;;5053763;28;20044;-59
2021/01/03 14:30:14;;;;;;;3.03;2.50;;;;;;;;;;5054024;28;20055;-59
2021/01/03 14:32:42;;;;;;;2.92;2.30;;;;;;;;;;5053979;28;20049;-59
2021/01/03 14:35:09;;;;;;;6.88;3.40;;;;;;;;;;5051824;28;20052;-59
2021/01/03 14:37:35;;;;;;;3.92;3.15;;;;;;;;;;5050821;28;20056;-59
2021/01/03 14:40:06;;;;;;;2.60;2.30;;;;;;;;;;5053530;28;20048;-59
2021/01/03 14:42:37;;;;;;;2.83;1.60;;;;;;;;;;5054796;28;20891;-59
2021/01/03 14:45:08;;;;;;;2.83;1.50;;;;;;;;;;5054024;28;20025;-59
2021/01/03 14:47:45;;;;;;;4.28;2.08;;;;;;;;;;5052739;28;20021;-59
2021/01/03 14:50:12;;;;;;;3.60;2.00;;;;;;;;;;5052298;28;20062;-59
2021/01/03 14:52:42;;;;;;;3.95;2.28;;;;;;;;;;5052991;28;20486;-59
2021/01/03 14:55:11;;;;;;;2.75;2.08;;;;;;;;;;5052937;28;20120;-60
2021/01/03 14:57:38;;;;;;;3.03;2.47;;;;;;;;;;5052888;28;20394;-59
2021/01/03 15:00:16;;;;;;;2.83;2.15;;;;;;;;;;5053742;28;20044;-60
2021/01/03 15:03:01;;;;;;;3.13;2.80;;;;;;;;;;5052129;28;20021;-59
2021/01/03 15:05:50;;;;;;;3.67;2.35;;;;;;;;;;5050661;28;20037;-60
2021/01/03 15:08:35;;;;;;;5.05;2.38;;;;;;;;;;5055993;28;20116;-59
2021/01/03 15:11:01;;;;;;;7.13;2.10;;;;;;;;;;5048781;28;20025;-59
2021/01/03 15:13:27;;;;;;;4.18;2.40;;;;;;;;;;5053365;28;20271;-59
2021/01/03 15:15:55;;;;;;;6.38;3.00;;;;;;;;;;5053523;28;20021;-60
2021/01/03 15:18:25;;;;;;;10.85;6.00;;;;;;;;;;5052992;28;20075;-59
2021/01/03 15:20:52;;;;;;;18.80;9.00;;;;;;;;;;5051634;28;20132;-59
2021/01/03 15:23:21;;;;;;;55.88;19.98;;;;;;;;;;5052660;28;20454;-59
2021/01/03 15:25:48;;;;;;;24.55;11.68;;;;;;;;;;5052931;28;20091;-59
2021/01/03 15:28:19;;;;;;;9.50;4.20;;;;;;;;;;5047657;28;20050;-59
2021/01/03 15:30:56;;;;;;;11.02;5.05;;;;;;;;;;5050206;28;20563;-59
2021/01/03 15:33:24;;;;;;;7.15;4.50;;;;;;;;;;5052769;28;20107;-60
2021/01/03 15:35:52;;;;;;;5.28;3.70;;;;;;;;;;5050928;28;20120;-59
2021/01/03 15:38:19;;;;;;;10.02;4.25;;;;;;;;;;5052382;28;20021;-59
2021/01/03 15:40:51;;;;;;;7.13;4.18;;;;;;;;;;5051259;28;20029;-59
2021/01/03 15:43:36;;;;;;;9.63;4.95;;;;;;;;;;5052548;28;20070;-59
2021/01/03 15:46:05;;;;;;;6.07;3.30;;;;;;;;;;5050919;28;20028;-59
2021/01/03 15:48:34;;;;;;;7.43;3.40;;;;;;;;;;5051814;28;20021;-59
2021/01/03 15:51:00;;;;;;;6.18;3.05;;;;;;;;;;5052866;28;20788;-59
2021/01/03 15:53:32;;;;;;;6.40;3.15;;;;;;;;;;5052609;28;20021;-59
2021/01/03 15:55:58;;;;;;;6.80;2.90;;;;;;;;;;5052292;28;20024;-59
2021/01/03 15:58:24;;;;;;;5.90;2.85;;;;;;;;;;5052128;28;20394;-59
2021/01/03 16:00:51;;;;;;;7.50;3.40;;;;;;;;;;5051970;28;20060;-58
2021/01/03 16:03:17;;;;;;;7.57;3.13;;;;;;;;;;5046341;28;20025;-59
2021/01/03 16:05:43;;;;;;;4.20;2.80;;;;;;;;;;5049776;28;20029;-59
2021/01/03 16:08:09;;;;;;;7.47;3.30;;;;;;;;;;5048643;28;20486;-59
2021/01/03 16:10:35;;;;;;;5.70;3.03;;;;;;;;;;5044494;28;20037;-59
2021/01/03 16:13:02;;;;;;;5.72;3.03;;;;;;;;;;5044540;28;20028;-59
2021/01/03 16:15:28;;;;;;;7.07;3.45;;;;;;;;;;5046791;28;20712;-60
2021/01/03 16:17:55;;;;;;;7.38;3.92;;;;;;;;;;5049130;28;20115;-59
2021/01/03 16:20:22;;;;;;;7.68;4.15;;;;;;;;;;5048065;28;20036;-59
2021/01/03 16:22:54;;;;;;;6.68;3.70;;;;;;;;;;5048534;28;20027;-59
2021/01/03 16:25:39;;;;;;;7.97;3.53;;;;;;;;;;5038302;28;20071;-59
2021/01/03 16:28:18;;;;;;;6.30;4.00;;;;;;;;;;5048192;28;20040;-59
2021/01/03 16:31:03;;;;;;;6.38;3.60;;;;;;;;;;5043804;28;20470;-59
2021/01/03 16:33:29;;;;;;;7.90;4.27;;;;;;;;;;5048474;28;20059;-59
2021/01/03 16:35:59;;;;;;;7.72;4.13;;;;;;;;;;5048537;28;20270;-59
2021/01/03 16:38:28;;;;;;;5.47;3.28;;;;;;;;;;5048274;28;20021;-59
2021/01/03 16:40:57;;;;;;;8.02;3.90;;;;;;;;;;5047688;28;20037;-59
2021/01/03 16:43:26;;;;;;;9.18;3.70;;;;;;;;;;5046529;28;20086;-60
2021/01/03 16:46:14;;;;;;;8.80;4.57;;;;;;;;;;5039473;28;20032;-59
2021/01/03 16:48:49;;;;;;;7.28;4.57;;;;;;;;;;5047940;28;20029;-60
2021/01/03 16:51:19;;;;;;;8.52;4.80;;;;;;;;;;5047701;28;20478;-60
2021/01/03 16:53:51;;;;;;;8.80;4.43;;;;;;;;;;5080082;28;20051;-60
2021/01/03 16:56:35;;;;;;;6.38;4.00;;;;;;;;;;5042578;28;20040;-60
2021/01/03 16:59:01;;;;;;;12.50;4.75;;;;;;;;;;5047468;28;20036;-60
2021/01/03 17:01:29;;;;;;;10.48;4.05;;;;;;;;;;5047554;28;20048;-59
2021/01/03 17:03:57;;;;;;;6.72;4.20;;;;;;;;;;5047726;28;20410;-59
2021/01/03 17:06:23;;;;;;;10.27;4.13;;;;;;;;;;5047464;28;20507;-60
2021/01/03 17:09:18;;;;;;;6.57;4.72;;;;;;;;;;5048654;28;20120;-60
2021/01/03 17:11:54;;;;;;;8.57;4.32;;;;;;;;;;5049567;28;20410;-60
2021/01/03 17:14:36;;;;;;;11.35;7.95;;;;;;;;;;5046122;28;20512;-60
2021/01/03 17:17:09;;;;;;;13.57;6.65;;;;;;;;;;5046698;28;20029;-60
2021/01/03 17:19:51;;;;;;;9.63;6.45;;;;;;;;;;5047763;28;20025;-60
2021/01/03 17:22:28;;;;;;;9.85;5.78;;;;;;;;;;5049128;28;20468;-60
2021/01/03 17:25:10;;;;;;;8.65;6.18;;;;;;;;;;5049131;28;20021;-60
2021/01/03 17:27:45;;;;;;;13.13;5.90;;;;;;;;;;5048358;28;20494;-60
2021/01/03 17:30:25;;;;;;;8.33;5.40;;;;;;;;;;5045157;28;20036;-60
2021/01/03 17:33:04;;;;;;;9.50;6.82;;;;;;;;;;5045067;28;20024;-60
2021/01/03 17:35:57;;;;;;;9.00;6.47;;;;;;;;;;5047615;28;20116;-60
2021/01/03 17:38:35;;;;;;;17.50;13.27;;;;;;;;;;5044405;28;20017;-60
2021/01/03 17:41:04;;;;;;;9.07;5.97;;;;;;;;;;5046655;28;20127;-60
2021/01/03 17:43:30;;;;;;;6.60;4.90;;;;;;;;;;5047527;28;20017;-60
2021/01/03 17:45:57;;;;;;;8.38;4.95;;;;;;;;;;5047589;28;20067;-60
2021/01/03 17:48:42;;;;;;;11.07;5.57;;;;;;;;;;5047871;28;20024;-60
2021/01/03 17:51:08;;;;;;;11.38;5.60;;;;;;;;;;5045982;28;20041;-60
2021/01/03 17:53:36;;;;;;;7.53;5.22;;;;;;;;;;5047551;28;20033;-60
2021/01/03 17:56:06;;;;;;;9.55;5.80;;;;;;;;;;5047332;28;20398;-60
2021/01/03 17:58:33;;;;;;;8.40;5.07;;;;;;;;;;5044648;28;20387;-60
2021/01/03 18:00:59;;;;;;;11.95;4.80;;;;;;;;;;5047381;28;20056;-59
2021/01/03 18:03:26;;;;;;;9.20;4.25;;;;;;;;;;5047668;28;20033;-60
2021/01/03 18:05:52;;;;;;;5.78;3.28;;;;;;;;;;5045797;28;20128;-60
2021/01/03 18:08:18;;;;;;;10.82;3.17;;;;;;;;;;5046737;28;20025;-60
2021/01/03 18:10:45;;;;;;;6.40;3.35;;;;;;;;;;5047600;28;20060;-60
2021/01/03 18:13:12;;;;;;;9.85;3.20;;;;;;;;;;5047422;28;20024;-60
2021/01/03 18:15:38;;;;;;;11.63;4.10;;;;;;;;;;5047520;28;20021;-59
2021/01/03 18:18:04;;;;;;;7.53;4.70;;;;;;;;;;5047817;28;20025;-59
2021/01/03 18:20:31;;;;;;;10.50;4.15;;;;;;;;;;5046806;28;20120;-60
2021/01/03 18:22:57;;;;;;;5.32;3.17;;;;;;;;;;5047993;28;20189;-60
2021/01/03 18:25:23;;;;;;;28.38;17.40;;;;;;;;;;5048861;28;20048;-60
2021/01/03 18:27:50;;;;;;;28.38;19.10;;;;;;;;;;5049706;28;20104;-60
2021/01/03 18:30:18;;;;;;;29.05;16.98;;;;;;;;;;5050430;28;20134;-60
2021/01/03 18:32:47;;;;;;;21.70;15.10;;;;;;;;;;5049776;28;20406;-60
2021/01/03 18:35:16;;;;;;;18.30;11.52;;;;;;;;;;5050000;28;20045;-60
2021/01/03 18:37:43;;;;;;;17.35;11.73;;;;;;;;;;5050048;28;20394;-60
2021/01/03 18:40:10;;;;;;;18.98;11.43;;;;;;;;;;5048740;28;20387;-60
2021/01/03 18:42:36;;;;;;;15.73;10.55;;;;;;;;;;5049498;28;20087;-60
2021/01/03 18:45:04;;;;;;;14.32;10.30;;;;;;;;;;5050228;28;20033;-59
2021/01/03 18:47:30;;;;;;;14.50;9.55;;;;;;;;;;5049794;28;20060;-60
2021/01/03 18:49:56;;;;;;;15.20;9.45;;;;;;;;;;5049518;28;20071;-60
2021/01/03 18:52:22;;;;;;;14.50;9.95;;;;;;;;;;5049106;28;20065;-60
2021/01/03 18:54:49;;;;;;;15.68;10.93;;;;;;;;;;5049434;28;20079;-60
2021/01/03 18:57:15;;;;;;;18.48;10.05;;;;;;;;;;5050323;28;20473;-60
2021/01/03 18:59:41;;;;;;;16.10;10.77;;;;;;;;;;5053189;28;20021;-60
2021/01/03 19:02:07;;;;;;;16.98;11.43;;;;;;;;;;5049081;28;20049;-60
2021/01/03 19:04:33;;;;;;;19.63;11.18;;;;;;;;;;5052553;28;20482;-60
2021/01/03 19:07:00;;;;;;;22.58;12.05;;;;;;;;;;5051748;28;20029;-60
2021/01/03 19:09:28;;;;;;;17.70;11.27;;;;;;;;;;5052423;28;20417;-60
2021/01/03 19:11:55;;;;;;;19.70;12.82;;;;;;;;;;5052657;28;20036;-60
2021/01/03 19:14:21;;;;;;;19.17;11.98;;;;;;;;;;5051447;28;20021;-61
2021/01/03 19:16:48;;;;;;;22.77;12.52;;;;;;;;;;5051899;28;20095;-60
2021/01/03 19:19:15;;;;;;;20.85;11.57;;;;;;;;;;5049671;28;20028;-60
2021/01/03 19:21:42;;;;;;;19.08;12.57;;;;;;;;;;5049410;28;20040;-60
2021/01/03 19:24:08;;;;;;;21.73;13.68;;;;;;;;;;5048123;28;20024;-60
2021/01/03 19:26:34;;;;;;;19.17;14.07;;;;;;;;;;5046248;28;20406;-60
2021/01/03 19:29:00;;;;;;;26.52;17.15;;;;;;;;;;5049073;28;20064;-60
2021/01/03 19:31:28;;;;;;;24.35;15.43;;;;;;;;;;5048200;28;20035;-60
2021/01/03 19:33:55;;;;;;;24.27;17.42;;;;;;;;;;5049296;28;20107;-60
2021/01/03 19:36:23;;;;;;;19.80;13.20;;;;;;;;;;5049972;28;20555;-60
2021/01/03 19:38:49;;;;;;;24.42;15.05;;;;;;;;;;5049887;28;20056;-60
2021/01/03 19:41:16;;;;;;;25.95;15.90;;;;;;;;;;5046940;28;20033;-60
2021/01/03 19:43:42;;;;;;;28.52;16.30;;;;;;;;;;5049824;28;20521;-60
2021/01/03 19:46:09;;;;;;;23.73;15.10;;;;;;;;;;5050022;28;20032;-60
2021/01/03 19:48:35;;;;;;;26.63;15.73;;;;;;;;;;5049279;28;20029;-60
2021/01/03 19:51:01;;;;;;;23.95;16.65;;;;;;;;;;5049578;28;20111;-60
2021/01/03 19:53:28;;;;;;;24.85;16.42;;;;;;;;;;5049651;28;20032;-61
2021/01/03 19:55:54;;;;;;;25.05;17.63;;;;;;;;;;5048756;28;20025;-59
2021/01/03 19:58:20;;;;;;;31.58;19.15;;;;;;;;;;5048180;28;20483;-60
2021/01/03 20:00:46;;;;;;;25.50;16.23;;;;;;;;;;5048228;28;20048;-60
2021/01/03 20:03:13;;;;;;;26.40;15.40;;;;;;;;;;5047808;28;20032;-60
2021/01/03 20:05:39;;;;;;;30.75;17.77;;;;;;;;;;5048333;28;20063;-60
2021/01/03 20:08:06;;;;;;;28.73;17.13;;;;;;;;;;5048510;28;20557;-60
2021/01/03 20:10:32;;;;;;;28.80;17.45;;;;;;;;;;5048290;28;20028;-60
2021/01/03 20:12:58;;;;;;;26.73;17.63;;;;;;;;;;5048434;28;20116;-60
2021/01/03 20:15:24;;;;;;;29.65;16.83;;;;;;;;;;5048534;28;20506;-60
2021/01/03 20:17:52;;;;;;;26.92;16.88;;;;;;;;;;5048491;28;20036;-60
2021/01/03 20:20:18;;;;;;;24.38;15.75;;;;;;;;;;5047792;28;20033;-61
2021/01/03 20:22:44;;;;;;;30.20;17.88;;;;;;;;;;5048070;28;20050;-60
2021/01/03 20:25:11;;;;;;;33.45;17.55;;;;;;;;;;5046530;28;20036;-60
2021/01/03 20:27:37;;;;;;;30.65;17.27;;;;;;;;;;5047941;28;20486;-59
2021/01/03 20:30:04;;;;;;;27.02;16.77;;;;;;;;;;5048911;28;20028;-60
2021/01/03 20:32:32;;;;;;;28.80;16.83;;;;;;;;;;5047913;28;20378;-60
2021/01/03 20:34:58;;;;;;;25.95;16.33;;;;;;;;;;5047889;28;20510;-60
2021/01/03 20:37:24;;;;;;;24.92;15.48;;;;;;;;;;5047993;28;20112;-60
2021/01/03 20:39:50;;;;;;;27.42;16.77;;;;;;;;;;5048389;28;20106;-59
2021/01/03 20:42:17;;;;;;;22.73;15.88;;;;;;;;;;5048973;28;20056;-60
2021/01/03 20:44:44;;;;;;;29.80;17.02;;;;;;;;;;5049026;28;20078;-60
2021/01/03 20:47:12;;;;;;;30.73;16.55;;;;;;;;;;5047920;28;20040;-61
2021/01/03 20:49:39;;;;;;;32.45;21.98;;;;;;;;;;5048147;28;20013;-60
2021/01/03 20:52:05;;;;;;;33.83;23.25;;;;;;;;;;5047873;28;20029;-60